الصفحة الرئيسية
METAR-TAF:

METAR-TAF

مطار :

Phetchabun, تايلاند

دائرة عرض: 16-40-33N, خط طول: 101-11-42E, ارتفاع: 137 متر

مراقبة الطقس الحالي

تاريخ ووقت الإصدار 27 دقيقة قبل الساعة 09:00UTC
رياح هادئة
درجة الحرارة 27°درجة مئوية
الرطوبة 100%
ضغط 1008 hPa
الرؤية 10 كم أو أكثر
غيوم متفرقة على ارتفاع 3000 قدم

METAR: VTPB 260900Z 00000KT 9999 SCT030 27/27 Q1008 NOSIG

زمن: 16:27 (09:27 UTC)

توقعات

تاريخ ووقت الإصدار 4ساعات و 27 دقيقة قبل الساعة 05:00UTC
التوقعات صالحة من26 الساعة 06 UTC إلى 27 الساعة 06 UTC
ريح 5 عقدة من الشمال/الشمال الغربي
الرؤية 10 كم أو أكثر
غيوم متفرقة على ارتفاع 3000 قدم
مؤقت
من 26 الساعة 06 UTC إلى 26 الساعة 12 UTC
غيوم قليلة على ارتفاع 2000 قدم, مزنة ركامية.
غيوم مفككة على ارتفاع 2500 قدم
عاصفة رعدية, مطر خفيف

TAF: VTPB 260500Z 2606/2706 33005KT 9999 SCT030 TEMPO 2606/2612 -TSRA FEW020CB BKN025

أرصاد الطقس والتوقعات من أكثر من 4000 مطار (تقارير الطقس للمطار METAR والتنبؤ بالطقس بالمطارTAF).

المحطات المتاحة هي النقط الصفراء والحمراء على الخريطة.

حرك المؤشر فوق النقطة لمعرفة اسم المحطة.

ثم انقر لمعرفة أرصاد وتوقعات الطقس.

لتغيير الخارطة: اضغط على الأزرار الخضراء مع رمز الصليب الأسود للتكبير. على الزر الأخضر مع شرطة للتصغير، أو على الأسهم الخضراء للخرائط المجاورة.


METAR-TAF: